createdAt,value
2023-05-19T00:00:03.349Z,29.38
2023-05-19T00:01:03.616Z,29.38
2023-05-19T00:02:03.486Z,29.41
2023-05-19T00:03:03.639Z,29.35
2023-05-19T00:04:03.514Z,29.37
2023-05-19T00:05:03.567Z,29.35
2023-05-19T00:06:03.661Z,29.38
2023-05-19T00:07:03.650Z,29.42
2023-05-19T00:08:03.710Z,29.41
2023-05-19T00:09:03.792Z,29.41
2023-05-19T00:10:03.802Z,29.38
2023-05-19T00:11:03.862Z,29.42
2023-05-19T00:12:03.891Z,29.41
2023-05-19T00:13:03.914Z,29.44
2023-05-19T00:14:03.966Z,29.42
2023-05-19T00:15:04.032Z,29.38
2023-05-19T00:16:04.121Z,29.45
2023-05-19T00:17:04.110Z,29.47
2023-05-19T00:18:04.191Z,29.45
2023-05-19T00:19:04.227Z,29.44
2023-05-19T00:20:04.197Z,29.47
2023-05-19T00:21:04.253Z,29.45
2023-05-19T00:22:04.291Z,29.48
2023-05-19T00:23:04.282Z,29.50
2023-05-19T00:24:04.313Z,29.48
2023-05-19T00:25:04.344Z,29.48
2023-05-19T00:26:04.385Z,29.49
2023-05-19T00:27:04.383Z,29.45
2023-05-19T00:28:04.424Z,29.48
2023-05-19T00:29:04.456Z,29.53
2023-05-19T00:30:04.562Z,29.53
2023-05-19T00:31:04.490Z,29.51
2023-05-19T00:32:04.516Z,29.51
2023-05-19T00:33:04.553Z,29.48
2023-05-19T00:34:04.525Z,29.55
2023-05-19T00:35:04.538Z,29.51
2023-05-19T00:36:04.576Z,29.54
2023-05-19T00:37:04.576Z,29.49
2023-05-19T00:38:04.593Z,29.55
2023-05-19T00:39:04.620Z,29.60
2023-05-19T00:40:04.661Z,29.53
2023-05-19T00:41:04.725Z,29.55
2023-05-19T00:42:04.749Z,29.54
2023-05-19T00:43:04.792Z,29.57
2023-05-19T00:44:04.812Z,29.55
2023-05-19T00:45:04.853Z,29.58
2023-05-19T00:46:04.926Z,29.63
2023-05-19T00:47:05.000Z,29.65
2023-05-19T00:48:04.984Z,29.64
2023-05-19T00:49:04.991Z,29.61
2023-05-19T00:50:04.988Z,29.64
2023-05-19T00:51:05.030Z,29.57
2023-05-19T00:52:05.035Z,29.62
2023-05-19T00:53:05.041Z,29.70
2023-05-19T00:54:05.085Z,29.61
2023-05-19T00:55:05.128Z,29.64
2023-05-19T00:56:05.181Z,29.67
2023-05-19T00:57:05.223Z,29.64
2023-05-19T00:58:05.252Z,29.67
2023-05-19T00:59:05.285Z,29.64
2023-05-19T01:00:05.319Z,29.65
2023-05-19T01:01:05.495Z,29.67
2023-05-19T01:02:05.387Z,29.71
2023-05-19T01:03:05.520Z,29.67
2023-05-19T01:04:05.679Z,29.65
2023-05-19T01:05:05.490Z,29.70
2023-05-19T01:06:05.553Z,29.65
2023-05-19T01:07:05.582Z,29.68
2023-05-19T01:08:05.613Z,29.67
2023-05-19T01:09:05.669Z,29.64
2023-05-19T01:10:05.714Z,29.68
2023-05-19T01:11:05.762Z,29.70
2023-05-19T01:12:05.796Z,29.70
2023-05-19T01:13:05.850Z,29.68
2023-05-19T01:14:05.890Z,29.70
2023-05-19T01:15:06.047Z,29.70
2023-05-19T01:16:06.023Z,29.71
2023-05-19T01:17:06.023Z,29.76
2023-05-19T01:18:06.122Z,29.76
2023-05-19T01:19:06.175Z,29.73
2023-05-19T01:20:06.142Z,29.74
2023-05-19T01:21:06.165Z,29.74
2023-05-19T01:22:06.220Z,29.77
2023-05-19T01:23:06.268Z,29.80
2023-05-19T01:24:06.309Z,29.81
2023-05-19T01:25:06.373Z,29.74
2023-05-19T01:26:06.409Z,29.81
2023-05-19T01:27:06.485Z,29.77
2023-05-19T01:28:06.507Z,29.77
2023-05-19T01:29:06.549Z,29.77
2023-05-19T01:30:06.551Z,29.80
2023-05-19T01:31:06.581Z,29.77
2023-05-19T01:32:06.733Z,29.80
2023-05-19T01:33:06.796Z,29.85
2023-05-19T01:34:06.722Z,29.81
2023-05-19T01:35:06.747Z,29.83
2023-05-19T01:36:06.788Z,29.81
2023-05-19T01:37:06.829Z,29.80
2023-05-19T01:38:06.864Z,29.86
2023-05-19T01:39:06.936Z,29.82
2023-05-19T01:40:06.942Z,29.84
2023-05-19T01:41:07.008Z,29.87
2023-05-19T01:42:07.048Z,29.84
2023-05-19T01:43:07.157Z,29.81
2023-05-19T01:44:07.145Z,29.87
2023-05-19T01:45:07.173Z,29.89
2023-05-19T01:46:07.307Z,29.83
2023-05-19T01:47:07.242Z,29.85
2023-05-19T01:48:10.691Z,29.91
2023-05-19T01:49:07.305Z,29.89
2023-05-19T01:50:07.285Z,29.85
2023-05-19T01:51:07.288Z,29.82
2023-05-19T01:52:07.256Z,29.80
2023-05-19T01:53:07.256Z,29.85
2023-05-19T01:54:07.256Z,29.85
2023-05-19T01:55:07.231Z,29.87
2023-05-19T01:56:07.357Z,29.89
2023-05-19T01:57:07.245Z,29.89
2023-05-19T01:58:07.231Z,29.86
2023-05-19T01:59:07.225Z,29.86
2023-05-19T02:00:07.202Z,29.83
2023-05-19T02:02:07.184Z,29.83
2023-05-19T02:03:07.292Z,29.87
2023-05-19T02:04:07.211Z,29.86
2023-05-19T02:05:07.159Z,29.86
2023-05-19T02:06:07.179Z,29.89
2023-05-19T02:07:07.178Z,29.86
2023-05-19T02:08:07.183Z,29.87
2023-05-19T02:09:07.154Z,29.86
2023-05-19T02:10:07.146Z,29.87
2023-05-19T02:11:07.150Z,29.83
2023-05-19T02:12:07.122Z,29.87
2023-05-19T02:13:07.106Z,29.87
2023-05-19T02:14:07.100Z,29.87
2023-05-19T02:15:07.089Z,29.89
2023-05-19T02:16:07.101Z,29.87
2023-05-19T02:17:07.085Z,29.93
2023-05-19T02:18:07.113Z,29.87
2023-05-19T02:19:07.109Z,29.90
2023-05-19T02:20:07.074Z,29.87
2023-05-19T02:21:07.063Z,29.89
2023-05-19T02:22:07.062Z,29.92
2023-05-19T02:23:07.039Z,29.89
2023-05-19T02:24:07.032Z,29.93
2023-05-19T02:25:07.014Z,29.88
2023-05-19T02:26:07.003Z,29.94
2023-05-19T02:27:07.010Z,29.90
2023-05-19T02:28:07.055Z,29.91
2023-05-19T02:29:07.069Z,29.94
2023-05-19T02:30:07.132Z,29.94
2023-05-19T02:31:07.164Z,29.92
2023-05-19T02:32:07.241Z,29.97
2023-05-19T02:33:07.299Z,29.92
2023-05-19T02:34:07.318Z,29.94
2023-05-19T02:35:07.374Z,29.94
2023-05-19T02:36:07.412Z,29.90
2023-05-19T02:37:07.436Z,29.94
2023-05-19T02:38:07.462Z,29.96
2023-05-19T02:39:07.466Z,29.97
2023-05-19T02:40:07.495Z,29.96
2023-05-19T02:41:07.511Z,29.97
2023-05-19T02:42:07.542Z,29.97
2023-05-19T02:43:07.554Z,29.97
2023-05-19T02:44:07.607Z,29.99
2023-05-19T02:45:07.589Z,29.94
2023-05-19T02:46:07.631Z,29.97
2023-05-19T02:47:07.626Z,29.94
2023-05-19T02:48:07.704Z,29.97
2023-05-19T02:49:07.656Z,29.96
2023-05-19T02:50:07.686Z,29.97
2023-05-19T02:51:07.714Z,30.03
2023-05-19T02:52:07.810Z,30.02
2023-05-19T02:53:07.777Z,30.00
2023-05-19T02:54:07.800Z,30.03
2023-05-19T02:55:07.853Z,29.99
2023-05-19T02:56:07.901Z,29.99
2023-05-19T02:57:07.945Z,30.00
2023-05-19T02:58:07.990Z,30.02
2023-05-19T02:59:08.060Z,30.02
2023-05-19T03:00:08.054Z,30.03
2023-05-19T03:01:08.150Z,30.03
2023-05-19T03:02:08.315Z,30.08
2023-05-19T03:03:08.322Z,30.04
2023-05-19T03:04:08.295Z,30.06
2023-05-19T03:05:08.393Z,30.09
2023-05-19T03:06:08.321Z,30.04
2023-05-19T03:07:08.382Z,30.08
2023-05-19T03:08:08.414Z,30.09
2023-05-19T03:09:08.451Z,30.06
2023-05-19T03:10:08.566Z,30.09
2023-05-19T03:11:08.547Z,30.08
2023-05-19T03:12:08.576Z,30.08
2023-05-19T03:13:08.633Z,30.13
2023-05-19T03:14:08.681Z,30.09
2023-05-19T03:15:08.702Z,30.03
2023-05-19T03:16:08.827Z,30.10
2023-05-19T03:17:08.766Z,30.08
2023-05-19T03:18:08.814Z,30.09
2023-05-19T03:19:08.846Z,30.10
2023-05-19T03:20:08.814Z,30.12
2023-05-19T03:21:08.838Z,30.10
2023-05-19T03:22:08.868Z,30.10
2023-05-19T03:23:08.904Z,30.13
2023-05-19T03:24:08.962Z,30.12
2023-05-19T03:25:09.017Z,30.12
2023-05-19T03:26:09.103Z,30.10
2023-05-19T03:27:09.040Z,30.16
2023-05-19T03:28:09.036Z,30.13
2023-05-19T03:29:09.044Z,30.13
2023-05-19T03:30:09.077Z,30.12
2023-05-19T03:31:09.100Z,30.13
2023-05-19T03:32:09.164Z,30.15
2023-05-19T03:33:09.336Z,30.12
2023-05-19T03:34:09.235Z,30.12
2023-05-19T03:35:09.248Z,30.13
2023-05-19T03:36:09.329Z,30.16
2023-05-19T03:37:09.314Z,30.15
2023-05-19T03:38:09.341Z,30.18
2023-05-19T03:39:09.334Z,30.12
2023-05-19T03:40:09.327Z,30.13
2023-05-19T03:41:09.365Z,30.10
2023-05-19T03:42:09.407Z,30.10
2023-05-19T03:43:09.445Z,30.13
2023-05-19T03:44:09.499Z,30.10
2023-05-19T03:45:09.531Z,30.10
2023-05-19T03:46:09.620Z,30.15
2023-05-19T03:47:09.602Z,30.15
2023-05-19T03:48:09.707Z,30.12
2023-05-19T03:49:09.681Z,30.12
2023-05-19T03:50:09.724Z,30.16
2023-05-19T03:51:09.816Z,30.15
2023-05-19T03:52:09.807Z,30.15
2023-05-19T03:53:09.824Z,30.12
2023-05-19T03:54:09.886Z,30.15
2023-05-19T03:55:09.902Z,30.18
2023-05-19T03:56:09.966Z,30.16
2023-05-19T03:57:10.032Z,30.17
2023-05-19T03:58:10.043Z,30.15
2023-05-19T03:59:10.064Z,30.18
2023-05-19T04:00:10.092Z,30.17
2023-05-19T04:01:10.095Z,30.15
2023-05-19T04:02:10.128Z,30.15
2023-05-19T04:03:10.233Z,30.15
2023-05-19T04:04:10.190Z,30.12
2023-05-19T04:05:10.167Z,30.16
2023-05-19T04:06:10.217Z,30.18
2023-05-19T04:07:10.258Z,30.12
2023-05-19T04:08:10.316Z,30.10
2023-05-19T04:09:10.343Z,30.15
2023-05-19T04:10:10.400Z,30.19
2023-05-19T04:11:10.402Z,30.18
2023-05-19T04:12:10.472Z,30.15
2023-05-19T04:13:10.452Z,30.12
2023-05-19T04:14:10.474Z,30.17
2023-05-19T04:15:10.496Z,30.15
2023-05-19T04:16:10.577Z,30.13
2023-05-19T04:17:10.584Z,30.12
2023-05-19T04:18:10.637Z,30.19
2023-05-19T04:19:10.676Z,30.15
2023-05-19T04:20:10.586Z,30.15
2023-05-19T04:21:10.656Z,30.15
2023-05-19T04:22:10.674Z,30.15
2023-05-19T04:23:10.719Z,30.12
2023-05-19T04:24:10.763Z,30.17
2023-05-19T04:25:10.789Z,30.16
2023-05-19T04:26:10.817Z,30.16
2023-05-19T04:27:10.815Z,30.17
2023-05-19T04:28:10.835Z,30.15
2023-05-19T04:29:10.837Z,30.16
2023-05-19T04:30:10.874Z,30.16
2023-05-19T04:31:11.157Z,30.12
2023-05-19T04:32:10.968Z,30.15
2023-05-19T04:33:11.050Z,30.10
2023-05-19T04:34:11.075Z,30.12
2023-05-19T04:35:11.102Z,30.10
2023-05-19T04:36:11.195Z,30.11
2023-05-19T04:37:11.200Z,30.06
2023-05-19T04:38:11.226Z,30.12
2023-05-19T04:39:11.346Z,30.12
2023-05-19T04:40:11.338Z,30.09
2023-05-19T04:41:11.319Z,30.15
2023-05-19T04:42:11.364Z,30.09
2023-05-19T04:43:11.401Z,30.08
2023-05-19T04:44:11.409Z,30.08
2023-05-19T04:45:11.449Z,30.06
2023-05-19T04:46:13.176Z,30.05
2023-05-19T04:47:11.671Z,30.05
2023-05-19T04:48:11.542Z,30.05
2023-05-19T04:49:11.598Z,30.02
2023-05-19T04:50:11.622Z,30.04
2023-05-19T04:51:11.634Z,29.99
2023-05-19T04:52:11.680Z,29.93
2023-05-19T04:53:11.755Z,29.98
2023-05-19T04:54:11.753Z,29.95
2023-05-19T04:55:11.749Z,29.98
2023-05-19T04:56:11.812Z,30.00
2023-05-19T04:57:11.827Z,29.94
2023-05-19T04:58:11.886Z,29.97
2023-05-19T04:59:11.941Z,29.96
2023-05-19T05:00:11.949Z,29.97
2023-05-19T05:01:11.978Z,29.96
2023-05-19T05:02:12.100Z,29.93
2023-05-19T05:03:12.138Z,29.97
2023-05-19T05:04:12.168Z,29.97
2023-05-19T05:05:12.122Z,29.93
2023-05-19T05:06:12.151Z,29.88
2023-05-19T05:07:12.207Z,29.88
2023-05-19T05:08:12.226Z,29.84
2023-05-19T05:09:12.256Z,29.86
2023-05-19T05:10:12.288Z,29.90
2023-05-19T05:11:12.327Z,29.90
2023-05-19T05:12:12.340Z,29.88
2023-05-19T05:13:12.390Z,29.92
2023-05-19T05:14:12.432Z,29.86
2023-05-19T05:15:12.428Z,29.92
2023-05-19T05:16:12.551Z,29.90
2023-05-19T05:17:12.479Z,29.89
2023-05-19T05:18:12.520Z,29.86
2023-05-19T05:19:12.580Z,29.86
2023-05-19T05:20:12.574Z,29.87
2023-05-19T05:21:12.617Z,29.84
2023-05-19T05:22:12.633Z,29.89
2023-05-19T05:23:12.670Z,29.88
2023-05-19T05:24:12.694Z,29.89
2023-05-19T05:25:12.727Z,29.84
2023-05-19T05:26:12.756Z,29.79
2023-05-19T05:27:12.813Z,29.83
2023-05-19T05:28:12.849Z,29.83
2023-05-19T05:29:12.901Z,29.82
2023-05-19T05:30:12.946Z,29.86
2023-05-19T05:31:12.980Z,29.84
2023-05-19T05:32:13.122Z,29.84
2023-05-19T05:33:13.242Z,29.80
2023-05-19T05:34:13.075Z,29.77
2023-05-19T05:35:13.138Z,29.81
2023-05-19T05:36:13.174Z,29.84
2023-05-19T05:37:15.116Z,29.80
2023-05-19T05:38:13.270Z,29.77
2023-05-19T05:39:13.315Z,29.77
2023-05-19T05:40:13.320Z,29.77
2023-05-19T05:41:13.383Z,29.80
2023-05-19T05:42:13.397Z,29.77
2023-05-19T05:43:13.445Z,29.80
2023-05-19T05:44:13.510Z,29.79
2023-05-19T05:45:13.603Z,29.80
2023-05-19T05:46:13.590Z,29.73
2023-05-19T05:47:13.598Z,29.75
2023-05-19T05:48:13.646Z,29.76
2023-05-19T05:49:13.696Z,29.73
2023-05-19T05:50:13.681Z,29.76
2023-05-19T05:51:13.724Z,29.82
2023-05-19T05:52:13.729Z,29.76
2023-05-19T05:53:13.751Z,29.76
2023-05-19T05:54:13.796Z,29.73
2023-05-19T05:55:13.838Z,29.81
2023-05-19T05:56:13.860Z,29.78
2023-05-19T05:57:13.904Z,29.78
2023-05-19T05:58:13.906Z,29.73
2023-05-19T05:59:13.952Z,29.80
2023-05-19T06:00:13.954Z,29.78
2023-05-19T06:01:14.017Z,29.77
2023-05-19T06:02:14.106Z,29.78
2023-05-19T06:03:14.215Z,29.78
2023-05-19T06:04:14.079Z,29.75
2023-05-19T06:05:14.255Z,29.72
2023-05-19T06:06:14.289Z,29.85
2023-05-19T06:07:14.226Z,29.82
2023-05-19T06:08:14.205Z,29.77
2023-05-19T06:09:14.197Z,29.80
2023-05-19T06:10:14.260Z,29.78
2023-05-19T06:11:14.329Z,29.77
2023-05-19T06:12:14.332Z,29.80
2023-05-19T06:13:14.377Z,29.80
2023-05-19T06:14:14.352Z,29.78
2023-05-19T06:15:14.452Z,29.81
2023-05-19T06:16:14.477Z,29.75
2023-05-19T06:17:14.475Z,29.71
2023-05-19T06:18:14.552Z,29.77
2023-05-19T06:19:14.568Z,29.73
2023-05-19T06:20:14.552Z,29.75
2023-05-19T06:21:14.597Z,29.73
2023-05-19T06:22:14.591Z,29.70
2023-05-19T06:23:14.639Z,29.72
2023-05-19T06:24:14.609Z,29.67
2023-05-19T06:25:14.666Z,29.64
2023-05-19T06:26:14.714Z,29.70
2023-05-19T06:27:14.784Z,29.65
2023-05-19T06:28:14.819Z,29.69
2023-05-19T06:29:14.859Z,29.69
2023-05-19T06:30:14.893Z,29.67
2023-05-19T06:31:15.009Z,29.65
2023-05-19T06:32:14.913Z,29.62
2023-05-19T06:33:14.978Z,29.58
2023-05-19T06:34:14.928Z,29.63
2023-05-19T06:35:14.941Z,29.59
2023-05-19T06:36:14.942Z,29.70
2023-05-19T06:37:14.954Z,29.62
2023-05-19T06:38:14.980Z,29.59
2023-05-19T06:39:14.991Z,29.55
2023-05-19T06:40:15.008Z,29.61
2023-05-19T06:41:15.024Z,29.56
2023-05-19T06:42:15.062Z,29.48
2023-05-19T06:43:15.133Z,29.54
2023-05-19T06:44:15.164Z,29.50
2023-05-19T06:45:15.211Z,29.53
2023-05-19T06:46:15.289Z,29.47
2023-05-19T06:47:15.489Z,29.45
2023-05-19T06:48:15.426Z,29.51
2023-05-19T06:49:15.381Z,29.48
2023-05-19T06:50:15.367Z,29.50
2023-05-19T06:51:15.387Z,29.50
2023-05-19T06:52:15.392Z,29.52
2023-05-19T06:53:15.426Z,29.51
2023-05-19T06:54:15.422Z,29.56
2023-05-19T06:55:15.446Z,29.57
2023-05-19T06:56:15.462Z,29.51
2023-05-19T06:57:15.451Z,29.53
2023-05-19T06:58:15.496Z,29.54
2023-05-19T06:59:15.560Z,29.52
2023-05-19T07:00:18.314Z,29.45
2023-05-19T07:01:15.615Z,29.45
2023-05-19T07:02:15.612Z,29.47
2023-05-19T07:03:15.607Z,29.46
2023-05-19T07:04:15.572Z,29.44
2023-05-19T07:05:15.536Z,29.43
2023-05-19T07:06:15.549Z,29.46
2023-05-19T07:07:15.526Z,29.43
2023-05-19T07:08:15.540Z,29.52
2023-05-19T07:09:15.617Z,29.47
2023-05-19T07:10:15.526Z,29.49
2023-05-19T07:11:15.514Z,29.46
2023-05-19T07:12:15.505Z,29.41
2023-05-19T07:13:15.509Z,29.48
2023-05-19T07:14:15.502Z,29.42
2023-05-19T07:15:15.484Z,29.42
2023-05-19T07:16:15.521Z,29.46
2023-05-19T07:17:15.789Z,29.43
2023-05-19T07:18:15.466Z,29.43
2023-05-19T07:19:15.477Z,29.45
2023-05-19T07:20:15.449Z,29.42
2023-05-19T07:21:15.423Z,29.35
2023-05-19T07:22:15.435Z,29.38
2023-05-19T07:23:17.254Z,29.43
2023-05-19T07:24:15.431Z,29.38
2023-05-19T07:25:15.441Z,29.41
2023-05-19T07:26:15.485Z,29.36
2023-05-19T07:27:15.526Z,29.30
2023-05-19T07:28:15.557Z,29.29
2023-05-19T07:29:15.602Z,29.35
2023-05-19T07:30:15.629Z,29.31
2023-05-19T07:31:15.677Z,29.38
2023-05-19T07:32:15.847Z,29.36
2023-05-19T07:33:15.816Z,29.32
2023-05-19T07:34:15.830Z,29.26
2023-05-19T07:35:15.833Z,29.31
2023-05-19T07:36:15.892Z,29.21
2023-05-19T07:37:15.918Z,29.25
2023-05-19T07:38:15.962Z,29.19
2023-05-19T07:39:16.064Z,29.22
2023-05-19T07:40:16.041Z,29.19
2023-05-19T07:41:16.102Z,29.18
2023-05-19T07:42:16.091Z,29.17
2023-05-19T07:43:16.182Z,29.20
2023-05-19T07:44:16.210Z,29.14
2023-05-19T07:45:16.221Z,29.15
2023-05-19T07:46:16.387Z,29.17
2023-05-19T07:47:16.316Z,29.14
2023-05-19T07:48:16.453Z,29.14
2023-05-19T07:49:16.420Z,29.11
2023-05-19T07:50:16.444Z,29.04
2023-05-19T07:51:16.447Z,29.04
2023-05-19T07:52:16.480Z,29.07
2023-05-19T07:53:16.527Z,29.06
2023-05-19T07:54:16.561Z,28.99
2023-05-19T07:55:16.627Z,29.00
2023-05-19T07:56:16.624Z,28.99
2023-05-19T07:57:16.665Z,28.95
2023-05-19T07:58:16.681Z,28.99
2023-05-19T07:59:16.721Z,28.95
2023-05-19T08:00:16.730Z,28.98
2023-05-19T08:01:16.796Z,28.94
2023-05-19T08:02:16.839Z,28.94
2023-05-19T08:03:16.992Z,28.88
2023-05-19T08:04:17.033Z,28.86
2023-05-19T08:05:16.868Z,28.85
2023-05-19T08:06:16.917Z,28.90
2023-05-19T08:07:17.159Z,28.84
2023-05-19T08:08:17.063Z,28.89
2023-05-19T08:09:17.009Z,28.80
2023-05-19T08:10:17.051Z,28.74
2023-05-19T08:11:17.107Z,28.75
2023-05-19T08:12:17.141Z,28.75
2023-05-19T08:13:17.227Z,28.72
2023-05-19T08:14:17.231Z,28.70
2023-05-19T08:15:17.251Z,28.66
2023-05-19T08:16:17.415Z,28.66
2023-05-19T08:17:17.357Z,28.69
2023-05-19T08:18:17.346Z,28.65
2023-05-19T08:19:17.526Z,28.58
2023-05-19T08:20:17.404Z,28.58
2023-05-19T08:21:17.426Z,28.54
2023-05-19T08:22:17.446Z,28.61
2023-05-19T08:23:17.515Z,28.55
2023-05-19T08:24:17.563Z,28.58
2023-05-19T08:25:17.529Z,28.68
2023-05-19T08:26:17.558Z,28.68
2023-05-19T08:27:17.622Z,28.67
2023-05-19T08:28:17.610Z,28.69
2023-05-19T08:29:17.638Z,28.68
2023-05-19T08:30:17.633Z,28.69
2023-05-19T08:31:17.664Z,28.63
2023-05-19T08:32:17.657Z,28.68
2023-05-19T08:33:17.655Z,28.71
2023-05-19T08:34:17.683Z,28.68
2023-05-19T08:35:17.705Z,28.71
2023-05-19T08:36:17.720Z,28.68
2023-05-19T08:37:17.754Z,28.72
2023-05-19T08:38:17.821Z,28.69
2023-05-19T08:39:17.840Z,28.74
2023-05-19T08:40:17.871Z,28.75
2023-05-19T08:41:17.882Z,28.71
2023-05-19T08:42:17.881Z,28.73
2023-05-19T08:43:17.902Z,28.76
2023-05-19T08:44:19.030Z,28.74
2023-05-19T08:45:17.940Z,28.80
2023-05-19T08:46:17.976Z,28.82
2023-05-19T08:47:17.963Z,28.80
2023-05-19T08:48:17.998Z,28.83
2023-05-19T08:49:17.991Z,28.86
2023-05-19T08:50:18.036Z,28.90
2023-05-19T08:51:18.023Z,28.90
2023-05-19T08:52:18.093Z,28.88
2023-05-19T08:53:31.752Z,28.90
2023-05-19T08:54:19.090Z,28.84
2023-05-19T08:55:18.096Z,28.93
2023-05-19T08:56:18.088Z,28.93
2023-05-19T08:57:18.074Z,28.89
2023-05-19T08:58:18.061Z,28.94
2023-05-19T08:59:18.068Z,28.98
2023-05-19T09:00:18.054Z,28.92
2023-05-19T09:01:18.099Z,28.97
2023-05-19T09:02:18.055Z,28.96
2023-05-19T09:03:23.507Z,28.95
2023-05-19T09:04:19.109Z,28.93
2023-05-19T09:05:18.039Z,28.90
2023-05-19T09:06:18.002Z,28.90
2023-05-19T09:07:18.001Z,28.84
2023-05-19T09:08:17.998Z,28.83
2023-05-19T09:09:17.988Z,28.83
2023-05-19T09:10:17.971Z,28.79
2023-05-19T09:11:17.969Z,28.78
2023-05-19T09:12:17.977Z,28.77
2023-05-19T09:13:17.961Z,28.71
2023-05-19T09:14:17.967Z,28.71
2023-05-19T09:15:17.950Z,28.68
2023-05-19T09:16:18.013Z,28.72
2023-05-19T09:17:17.933Z,28.73
2023-05-19T09:18:17.946Z,28.67
2023-05-19T09:19:18.052Z,28.68
2023-05-19T09:20:18.023Z,28.67
2023-05-19T09:21:18.018Z,28.66
2023-05-19T09:22:18.044Z,28.60
2023-05-19T09:23:18.089Z,28.60
2023-05-19T09:24:18.148Z,28.63
2023-05-19T09:25:18.194Z,28.56
2023-05-19T09:26:18.158Z,28.52
2023-05-19T09:27:18.232Z,28.49
2023-05-19T09:28:18.201Z,28.46
2023-05-19T09:29:18.236Z,28.46
2023-05-19T09:30:18.228Z,28.45
2023-05-19T09:31:18.251Z,28.39
2023-05-19T09:32:18.302Z,28.41
2023-05-19T09:33:18.275Z,28.39
2023-05-19T09:34:18.253Z,28.35
2023-05-19T09:35:18.258Z,28.34
2023-05-19T09:36:18.294Z,28.32
2023-05-19T09:37:18.341Z,28.33
2023-05-19T09:38:18.298Z,28.31
2023-05-19T09:39:18.324Z,28.34
2023-05-19T09:40:18.377Z,28.28
2023-05-19T09:41:18.353Z,28.25
2023-05-19T09:42:18.358Z,28.27
2023-05-19T09:43:18.384Z,28.34
2023-05-19T09:44:18.402Z,28.25
2023-05-19T09:45:18.459Z,28.20
2023-05-19T09:46:18.555Z,28.19
2023-05-19T09:47:18.524Z,28.18
2023-05-19T09:48:18.560Z,28.12
2023-05-19T09:49:18.606Z,28.12
2023-05-19T09:50:18.735Z,28.15
2023-05-19T09:51:18.675Z,28.20
2023-05-19T09:52:18.721Z,28.30
2023-05-19T09:53:18.718Z,28.32
2023-05-19T09:54:18.735Z,28.34
2023-05-19T09:55:18.766Z,28.36
2023-05-19T09:56:18.788Z,28.46
2023-05-19T09:57:18.824Z,28.43
2023-05-19T09:58:18.890Z,28.49
2023-05-19T09:59:18.906Z,28.50
2023-05-19T10:00:18.924Z,28.51
2023-05-19T10:01:18.981Z,28.53
2023-05-19T10:02:18.978Z,28.57
2023-05-19T10:03:18.968Z,28.63
2023-05-19T10:04:18.968Z,28.61
2023-05-19T10:05:19.061Z,28.61
2023-05-19T10:06:19.011Z,28.63
2023-05-19T10:07:19.011Z,28.62
2023-05-19T10:08:19.078Z,28.61
2023-05-19T10:09:19.041Z,28.61
2023-05-19T10:10:19.085Z,28.74
2023-05-19T10:11:19.126Z,28.68
2023-05-19T10:12:19.173Z,28.77
2023-05-19T10:13:19.188Z,28.71
2023-05-19T10:14:19.219Z,28.76
2023-05-19T10:15:20.601Z,28.72
2023-05-19T10:16:19.219Z,28.81
2023-05-19T10:17:19.223Z,28.78
2023-05-19T10:18:19.257Z,28.76
2023-05-19T10:19:19.262Z,28.75
2023-05-19T10:20:19.194Z,28.82
2023-05-19T10:21:19.190Z,28.86
2023-05-19T10:22:19.178Z,28.86
2023-05-19T10:23:19.197Z,28.82
2023-05-19T10:24:19.172Z,28.80
2023-05-19T10:25:19.159Z,28.85
2023-05-19T10:26:19.157Z,28.90
2023-05-19T10:27:19.167Z,28.90
2023-05-19T10:28:19.156Z,28.90
2023-05-19T10:29:19.146Z,28.87
2023-05-19T10:30:19.115Z,28.90
2023-05-19T10:31:19.209Z,28.96
2023-05-19T10:32:19.194Z,28.99
2023-05-19T10:33:19.127Z,29.00
2023-05-19T10:34:19.156Z,29.00
2023-05-19T10:35:19.102Z,28.97
2023-05-19T10:36:19.085Z,28.98
2023-05-19T10:37:19.069Z,28.98
2023-05-19T10:38:19.091Z,28.92
2023-05-19T10:39:19.039Z,28.98
2023-05-19T10:40:19.056Z,28.89
2023-05-19T10:41:19.030Z,28.95
2023-05-19T10:42:19.038Z,28.97
2023-05-19T10:43:19.034Z,28.95
2023-05-19T10:44:19.026Z,28.89
2023-05-19T10:45:19.004Z,28.84
2023-05-19T10:46:19.179Z,28.87
2023-05-19T10:47:19.024Z,28.85
2023-05-19T10:48:18.983Z,28.92
2023-05-19T10:49:18.993Z,28.91
2023-05-19T10:50:19.000Z,28.81
2023-05-19T10:51:18.986Z,28.89
2023-05-19T10:52:18.966Z,28.80
2023-05-19T10:53:18.952Z,28.86
2023-05-19T10:54:18.941Z,28.87
2023-05-19T10:55:18.949Z,28.77
2023-05-19T10:56:18.925Z,28.79
2023-05-19T10:57:18.930Z,28.79
2023-05-19T10:58:18.920Z,28.69
2023-05-19T10:59:18.901Z,28.69
2023-05-19T11:00:18.919Z,28.66
2023-05-19T11:01:18.974Z,28.62
2023-05-19T11:02:18.989Z,28.63
2023-05-19T11:03:18.893Z,28.59
2023-05-19T11:04:18.922Z,28.59
2023-05-19T11:05:18.855Z,28.61
2023-05-19T11:06:18.877Z,28.54
2023-05-19T11:07:18.838Z,28.56
2023-05-19T11:08:18.873Z,28.48
2023-05-19T11:09:20.890Z,28.47
2023-05-19T11:10:19.833Z,28.44
2023-05-19T11:11:18.821Z,28.47
2023-05-19T11:12:18.804Z,28.47
2023-05-19T11:13:18.795Z,28.43
2023-05-19T11:14:18.786Z,28.47
2023-05-19T11:15:18.793Z,28.47
2023-05-19T11:16:18.840Z,28.40
2023-05-19T11:17:18.777Z,28.44
2023-05-19T11:18:18.756Z,28.50
2023-05-19T11:19:18.853Z,28.56
2023-05-19T11:20:18.816Z,28.54
2023-05-19T11:21:18.919Z,28.60
2023-05-19T11:22:18.903Z,28.58
2023-05-19T11:23:19.000Z,28.58
2023-05-19T11:24:18.979Z,28.63
2023-05-19T11:25:19.014Z,28.63
2023-05-19T11:26:19.062Z,28.62
2023-05-19T11:27:19.142Z,28.70
2023-05-19T11:28:19.342Z,28.65
2023-05-19T11:29:19.156Z,28.70
2023-05-19T11:30:19.232Z,28.65
2023-05-19T11:31:19.222Z,28.71
2023-05-19T11:32:19.404Z,28.71
2023-05-19T11:33:19.392Z,28.74
2023-05-19T11:34:19.301Z,28.74
2023-05-19T11:35:19.329Z,28.70
2023-05-19T11:36:19.340Z,28.72
2023-05-19T11:37:19.365Z,28.72
2023-05-19T11:38:19.338Z,28.74
2023-05-19T11:39:19.345Z,28.78
2023-05-19T11:40:19.353Z,28.81
2023-05-19T11:41:20.913Z,28.85
2023-05-19T11:42:19.428Z,28.79
2023-05-19T11:43:19.431Z,28.79
2023-05-19T11:44:19.455Z,28.82
2023-05-19T11:45:19.484Z,28.88
2023-05-19T11:46:19.589Z,28.85
2023-05-19T11:47:19.698Z,28.82
2023-05-19T11:48:19.580Z,28.90
2023-05-19T11:49:19.563Z,28.96
2023-05-19T11:50:19.599Z,28.99
2023-05-19T11:51:19.591Z,28.98
2023-05-19T11:52:19.606Z,29.00
2023-05-19T11:53:19.966Z,29.10
2023-05-19T11:54:19.677Z,29.12
2023-05-19T11:55:19.706Z,29.15
2023-05-19T11:56:19.749Z,29.10
2023-05-19T11:57:19.762Z,29.13
2023-05-19T11:58:19.767Z,29.20
2023-05-19T11:59:19.809Z,29.23
2023-05-19T12:00:19.801Z,29.23
2023-05-19T12:01:19.826Z,29.24
2023-05-19T12:02:19.909Z,29.26
2023-05-19T12:03:19.953Z,29.22
2023-05-19T12:04:19.902Z,29.20
2023-05-19T12:05:19.964Z,29.22
2023-05-19T12:06:19.983Z,29.23
2023-05-19T12:07:19.968Z,29.26
2023-05-19T12:08:19.953Z,29.19
2023-05-19T12:09:20.005Z,29.16
2023-05-19T12:10:19.992Z,29.20
2023-05-19T12:11:20.175Z,29.18
2023-05-19T12:12:20.037Z,29.15
2023-05-19T12:13:20.092Z,29.10
2023-05-19T12:14:20.097Z,29.02
2023-05-19T12:15:20.098Z,29.13
2023-05-19T12:16:20.232Z,29.12
2023-05-19T12:17:20.223Z,29.03
2023-05-19T12:18:20.223Z,28.96
2023-05-19T12:19:20.285Z,28.99
2023-05-19T12:20:20.215Z,28.97
2023-05-19T12:21:20.255Z,29.03
2023-05-19T12:22:20.250Z,29.02
2023-05-19T12:23:20.239Z,28.97
2023-05-19T12:24:20.266Z,28.92
2023-05-19T12:25:20.292Z,28.96
2023-05-19T12:26:20.319Z,28.93
2023-05-19T12:27:20.365Z,28.95
2023-05-19T12:28:20.388Z,28.95
2023-05-19T12:29:20.428Z,28.96
2023-05-19T12:30:20.433Z,28.97
2023-05-19T12:31:20.531Z,29.03
2023-05-19T12:32:20.468Z,28.98
2023-05-19T12:33:20.486Z,28.98
2023-05-19T12:34:20.492Z,28.98
2023-05-19T12:35:20.527Z,29.00
2023-05-19T12:36:20.543Z,29.00
2023-05-19T12:37:20.554Z,29.02
2023-05-19T12:38:20.581Z,28.99
2023-05-19T12:39:21.557Z,29.12
2023-05-19T12:40:20.716Z,29.02
2023-05-19T12:41:20.670Z,29.05
2023-05-19T12:42:20.732Z,29.00
2023-05-19T12:43:20.766Z,29.06
2023-05-19T12:44:20.761Z,29.03
2023-05-19T12:45:20.816Z,29.09
2023-05-19T12:46:20.876Z,29.08
2023-05-19T12:47:20.881Z,29.11
2023-05-19T12:48:20.950Z,29.10
2023-05-19T12:49:20.955Z,29.17
2023-05-19T12:50:20.989Z,29.10
2023-05-19T12:51:21.043Z,29.10
2023-05-19T12:52:21.069Z,29.10
2023-05-19T12:53:21.114Z,29.14